createdAt,value
2018-12-07T00:02:04.767Z,1.13
2018-12-07T00:04:32.202Z,1.00
2018-12-07T00:06:59.678Z,0.70
2018-12-07T00:09:27.182Z,0.90
2018-12-07T00:11:54.703Z,0.80
2018-12-07T00:14:22.168Z,1.00
2018-12-07T00:16:49.793Z,1.00
2018-12-07T00:19:17.240Z,1.03
2018-12-07T00:21:44.674Z,1.30
2018-12-07T00:24:12.185Z,1.07
2018-12-07T00:26:39.617Z,1.07
2018-12-07T00:29:07.103Z,1.10
2018-12-07T00:31:34.582Z,1.10
2018-12-07T00:34:02.015Z,1.30
2018-12-07T00:36:29.548Z,1.30
2018-12-07T00:38:57.016Z,1.10
2018-12-07T00:41:24.550Z,1.20
2018-12-07T00:43:52.191Z,1.30
2018-12-07T00:46:19.602Z,1.20
2018-12-07T00:48:47.030Z,1.20
2018-12-07T00:51:14.547Z,1.23
2018-12-07T00:53:41.986Z,1.23
2018-12-07T00:56:09.422Z,1.30
2018-12-07T00:58:36.970Z,1.00
2018-12-07T01:01:04.542Z,1.00
2018-12-07T01:03:31.999Z,1.07
2018-12-07T01:05:59.509Z,1.10
2018-12-07T01:08:27.214Z,1.17
2018-12-07T01:10:54.703Z,0.93
2018-12-07T01:13:22.153Z,0.80
2018-12-07T01:15:49.630Z,0.90
2018-12-07T01:18:17.095Z,1.03
2018-12-07T01:20:44.507Z,1.00
2018-12-07T01:23:11.975Z,0.80
2018-12-07T01:25:39.595Z,0.70
2018-12-07T01:28:07.040Z,0.90
2018-12-07T01:30:34.469Z,0.80
2018-12-07T01:33:02.167Z,0.70
2018-12-07T01:35:29.647Z,0.80
2018-12-07T01:37:57.081Z,0.70
2018-12-07T01:40:24.545Z,0.70
2018-12-07T01:42:52.001Z,0.70
2018-12-07T01:45:19.452Z,0.70
2018-12-07T01:47:46.919Z,0.60
2018-12-07T01:50:15.239Z,0.70
2018-12-07T01:52:42.820Z,0.53
2018-12-07T01:55:10.329Z,0.70
2018-12-07T01:57:37.801Z,0.40
2018-12-07T02:00:07.404Z,0.50
2018-12-07T02:02:34.866Z,0.50
2018-12-07T02:05:02.336Z,0.70
2018-12-07T02:07:32.201Z,0.60
2018-12-07T02:09:59.670Z,0.60
2018-12-07T02:12:27.762Z,0.53
2018-12-07T02:14:55.262Z,0.60
2018-12-07T02:17:22.780Z,0.60
2018-12-07T02:19:50.237Z,0.70
2018-12-07T02:22:17.743Z,0.60
2018-12-07T02:24:45.219Z,0.60
2018-12-07T02:27:12.675Z,0.70
2018-12-07T02:29:40.265Z,0.50
2018-12-07T02:32:07.722Z,0.57
2018-12-07T02:34:35.225Z,0.40
2018-12-07T02:37:02.698Z,0.57
2018-12-07T02:39:30.133Z,0.60
2018-12-07T02:41:57.564Z,0.60
2018-12-07T02:44:25.173Z,0.60
2018-12-07T02:46:52.682Z,0.80
2018-12-07T02:49:20.118Z,0.50
2018-12-07T02:51:47.670Z,0.70
2018-12-07T02:54:15.222Z,0.70
2018-12-07T02:56:42.770Z,0.60
2018-12-07T02:59:10.222Z,1.00
2018-12-07T03:01:37.713Z,0.80
2018-12-07T03:04:05.286Z,0.83
2018-12-07T03:06:32.773Z,0.90
2018-12-07T03:09:00.349Z,0.93
2018-12-07T03:11:27.905Z,1.10
2018-12-07T03:13:55.391Z,1.10
2018-12-07T03:16:22.841Z,1.40
2018-12-07T03:18:50.308Z,1.00
2018-12-07T03:21:17.954Z,1.17
2018-12-07T03:23:45.598Z,1.20
2018-12-07T03:26:13.027Z,1.47
2018-12-07T03:28:40.511Z,1.40
2018-12-07T03:31:08.078Z,1.30
2018-12-07T03:33:35.634Z,1.20
2018-12-07T03:36:03.390Z,1.20
2018-12-07T03:38:31.053Z,1.40
2018-12-07T03:40:58.519Z,1.33
2018-12-07T03:43:26.070Z,1.50
2018-12-07T03:45:53.963Z,1.53
2018-12-07T03:48:21.494Z,1.40
2018-12-07T03:50:49.057Z,1.30
2018-12-07T03:53:16.709Z,1.30
2018-12-07T03:55:44.136Z,1.40
2018-12-07T03:58:11.638Z,1.50
2018-12-07T04:00:39.241Z,1.70
2018-12-07T04:03:06.821Z,1.80
2018-12-07T04:05:34.411Z,1.70
2018-12-07T04:08:01.974Z,2.00
2018-12-07T04:10:29.504Z,1.63
2018-12-07T04:12:56.957Z,2.07
2018-12-07T04:15:24.531Z,2.00
2018-12-07T04:17:52.002Z,2.13
2018-12-07T04:20:19.609Z,1.97
2018-12-07T04:22:47.069Z,1.90
2018-12-07T04:25:14.580Z,2.07
2018-12-07T04:27:42.134Z,1.77
2018-12-07T04:30:24.667Z,1.90
2018-12-07T04:32:52.286Z,2.57
2018-12-07T04:35:19.702Z,2.20
2018-12-07T04:37:47.258Z,2.13
2018-12-07T04:40:15.294Z,2.37
2018-12-07T04:42:42.868Z,2.53
2018-12-07T04:45:10.337Z,2.33
2018-12-07T04:47:37.864Z,2.27
2018-12-07T04:50:05.450Z,2.30
2018-12-07T04:52:32.935Z,2.50
2018-12-07T04:55:00.607Z,2.43
2018-12-07T04:57:28.302Z,2.47
2018-12-07T04:59:55.866Z,2.40
2018-12-07T05:02:23.378Z,2.20
2018-12-07T05:04:50.865Z,2.43
2018-12-07T05:07:18.447Z,2.50
2018-12-07T05:09:45.994Z,2.60
2018-12-07T05:12:13.571Z,2.43
2018-12-07T05:14:41.138Z,2.23
2018-12-07T05:17:08.689Z,2.60
2018-12-07T05:19:36.175Z,2.60
2018-12-07T05:22:03.650Z,2.43
2018-12-07T05:24:31.203Z,2.67
2018-12-07T05:26:58.678Z,2.43
2018-12-07T05:29:26.304Z,3.00
2018-12-07T05:31:53.806Z,2.77
2018-12-07T05:34:21.410Z,2.70
2018-12-07T05:36:48.941Z,3.10
2018-12-07T05:39:16.398Z,2.93
2018-12-07T05:41:43.857Z,3.00
2018-12-07T05:44:11.530Z,2.63
2018-12-07T05:46:38.977Z,2.80
2018-12-07T05:49:06.569Z,2.97
2018-12-07T05:51:34.115Z,3.17
2018-12-07T05:54:01.654Z,3.27
2018-12-07T05:56:29.221Z,3.23
2018-12-07T05:58:56.812Z,3.63
2018-12-07T06:01:24.354Z,2.93
2018-12-07T06:03:51.897Z,3.13
2018-12-07T06:06:19.552Z,3.37
2018-12-07T06:08:47.012Z,3.47
2018-12-07T06:11:14.501Z,3.70
2018-12-07T06:13:41.967Z,3.00
2018-12-07T06:16:09.508Z,3.43
2018-12-07T06:18:37.042Z,3.10
2018-12-07T06:21:04.811Z,3.33
2018-12-07T06:23:32.233Z,3.50
2018-12-07T06:25:59.732Z,3.73
2018-12-07T06:28:27.384Z,3.47
2018-12-07T06:30:54.845Z,3.57
2018-12-07T06:33:22.388Z,4.30
2018-12-07T06:35:49.934Z,3.60
2018-12-07T06:38:17.425Z,3.57
2018-12-07T06:40:45.089Z,3.50
2018-12-07T06:43:12.736Z,2.90
2018-12-07T06:45:40.168Z,3.07
2018-12-07T06:48:07.655Z,3.43
2018-12-07T06:50:36.891Z,3.43
2018-12-07T06:53:04.566Z,3.60
2018-12-07T06:55:31.991Z,3.70
2018-12-07T06:57:59.429Z,3.90
2018-12-07T07:00:27.092Z,4.73
2018-12-07T07:02:54.522Z,3.70
2018-12-07T07:05:22.188Z,4.10
2018-12-07T07:07:49.608Z,4.30
2018-12-07T07:10:17.065Z,3.57
2018-12-07T07:12:45.590Z,4.60
2018-12-07T07:15:13.055Z,4.10
2018-12-07T07:17:40.841Z,4.30
2018-12-07T07:20:08.389Z,4.60
2018-12-07T07:22:35.938Z,3.83
2018-12-07T07:25:03.747Z,3.97
2018-12-07T07:27:31.181Z,4.17
2018-12-07T07:29:58.820Z,4.20
2018-12-07T07:32:26.258Z,4.60
2018-12-07T07:34:53.740Z,3.60
2018-12-07T07:37:21.472Z,3.77
2018-12-07T07:39:48.945Z,3.57
2018-12-07T07:42:16.467Z,3.40
2018-12-07T07:44:43.962Z,3.57
2018-12-07T07:47:11.531Z,3.13
2018-12-07T07:49:39.165Z,2.67
2018-12-07T07:52:06.827Z,2.90
2018-12-07T07:54:34.307Z,2.97
2018-12-07T07:57:01.791Z,2.90
2018-12-07T07:59:29.246Z,2.57
2018-12-07T08:01:56.786Z,3.17
2018-12-07T08:04:24.254Z,2.73
2018-12-07T08:06:51.708Z,2.77
2018-12-07T08:09:19.539Z,2.77
2018-12-07T08:11:47.118Z,2.80
2018-12-07T08:14:14.580Z,2.60
2018-12-07T08:16:42.137Z,2.63
2018-12-07T08:19:09.574Z,2.63
2018-12-07T08:21:37.035Z,2.67
2018-12-07T08:24:04.601Z,2.53
2018-12-07T08:26:32.094Z,2.50
2018-12-07T08:28:59.600Z,2.27
2018-12-07T08:31:27.012Z,1.97
2018-12-07T08:33:54.535Z,2.10
2018-12-07T08:36:21.974Z,2.00
2018-12-07T08:38:49.446Z,2.20
2018-12-07T08:41:17.003Z,1.83
2018-12-07T08:43:44.448Z,1.53
2018-12-07T08:46:11.897Z,1.77
2018-12-07T08:48:39.475Z,1.97
2018-12-07T08:51:06.936Z,2.00
2018-12-07T08:53:34.394Z,1.70
2018-12-07T08:56:02.002Z,1.73
2018-12-07T08:58:29.431Z,1.97
2018-12-07T09:00:56.890Z,1.60
2018-12-07T09:03:24.359Z,1.77
2018-12-07T09:05:51.961Z,1.60
2018-12-07T09:08:19.377Z,1.70
2018-12-07T09:10:46.918Z,1.30
2018-12-07T09:13:14.411Z,1.60
2018-12-07T09:15:42.096Z,1.50
2018-12-07T09:18:09.536Z,1.27
2018-12-07T09:20:36.993Z,1.50
2018-12-07T09:23:04.485Z,1.20
2018-12-07T09:25:31.946Z,1.10
2018-12-07T09:27:59.398Z,1.50
2018-12-07T09:30:26.969Z,1.00
2018-12-07T09:32:54.531Z,1.10
2018-12-07T09:35:22.262Z,1.07
2018-12-07T09:37:49.941Z,0.90
2018-12-07T09:40:17.501Z,1.27
2018-12-07T09:42:44.942Z,1.03
2018-12-07T09:45:12.520Z,1.30
2018-12-07T09:47:40.056Z,1.10
2018-12-07T09:50:07.616Z,1.20
2018-12-07T09:52:35.098Z,1.53
2018-12-07T09:55:02.760Z,1.40
2018-12-07T09:57:30.211Z,1.17
2018-12-07T09:59:57.748Z,1.20
2018-12-07T10:02:25.181Z,0.90
2018-12-07T10:04:52.683Z,0.93
2018-12-07T10:07:20.158Z,1.10
2018-12-07T10:09:47.589Z,1.20
2018-12-07T10:12:15.155Z,0.80
2018-12-07T10:14:42.596Z,0.90
2018-12-07T10:17:10.165Z,0.90
2018-12-07T10:19:37.632Z,0.73
2018-12-07T10:22:05.196Z,0.80
2018-12-07T10:24:32.768Z,1.00
2018-12-07T10:27:04.099Z,0.70
2018-12-07T10:29:31.653Z,0.93
2018-12-07T10:31:59.098Z,0.80
2018-12-07T10:34:26.668Z,0.97
2018-12-07T10:36:54.230Z,0.70
2018-12-07T10:39:21.679Z,0.60
2018-12-07T10:41:49.225Z,0.70
2018-12-07T10:44:16.709Z,0.70
2018-12-07T10:46:44.166Z,0.70
2018-12-07T10:49:11.732Z,0.90
2018-12-07T10:51:39.181Z,0.60
2018-12-07T10:54:06.713Z,0.80
2018-12-07T10:56:34.225Z,0.70
2018-12-07T10:59:01.727Z,0.63
2018-12-07T11:01:34.730Z,0.77
2018-12-07T11:04:07.905Z,0.70
2018-12-07T11:06:52.259Z,0.50
2018-12-07T11:09:25.342Z,0.70
2018-12-07T11:11:58.639Z,0.63
2018-12-07T11:20:45.386Z,0.87
2018-12-07T11:23:18.469Z,0.70
2018-12-07T11:25:51.514Z,0.50
2018-12-07T11:31:34.425Z,0.60
2018-12-07T11:34:03.905Z,0.40
2018-12-07T11:36:31.384Z,0.67
2018-12-07T11:38:58.842Z,0.60
2018-12-07T11:41:26.380Z,0.60
2018-12-07T11:43:53.811Z,0.40
2018-12-07T11:46:21.305Z,0.60
2018-12-07T11:48:48.789Z,0.50
2018-12-07T11:51:16.344Z,0.67
2018-12-07T11:53:44.001Z,0.50
2018-12-07T11:56:11.541Z,0.40
2018-12-07T11:58:39.085Z,0.70
2018-12-07T12:01:06.569Z,0.80
2018-12-07T12:03:34.293Z,0.50
2018-12-07T12:06:01.893Z,0.60
2018-12-07T12:08:29.564Z,0.70
2018-12-07T12:10:57.112Z,0.60
2018-12-07T12:13:24.673Z,0.50
2018-12-07T12:15:52.189Z,0.50
2018-12-07T12:18:19.609Z,0.50
2018-12-07T12:20:47.142Z,0.60
2018-12-07T12:23:14.603Z,0.40
2018-12-07T12:25:42.053Z,0.50
2018-12-07T12:28:09.597Z,0.60
2018-12-07T12:30:37.139Z,0.60
2018-12-07T12:33:04.726Z,0.50
2018-12-07T12:35:32.186Z,0.50
2018-12-07T12:37:59.641Z,0.70
2018-12-07T12:40:27.247Z,0.63
2018-12-07T12:42:54.674Z,0.63
2018-12-07T12:45:22.227Z,0.67
2018-12-07T12:47:49.778Z,0.70
2018-12-07T12:50:23.174Z,0.60
2018-12-07T12:52:50.646Z,0.50
2018-12-07T12:55:18.136Z,0.50
2018-12-07T12:57:45.646Z,0.43
2018-12-07T13:00:13.082Z,0.57
2018-12-07T13:02:40.746Z,0.50
2018-12-07T13:05:08.177Z,0.50
2018-12-07T13:07:35.695Z,0.47
2018-12-07T13:10:03.722Z,0.50
2018-12-07T13:12:31.184Z,1.20
2018-12-07T13:14:58.643Z,0.57
2018-12-07T13:17:26.158Z,0.40
2018-12-07T13:19:53.809Z,0.50
2018-12-07T13:22:21.257Z,0.40
2018-12-07T13:24:48.879Z,0.50
2018-12-07T13:27:16.467Z,0.47
2018-12-07T13:29:44.018Z,0.40
2018-12-07T13:32:11.557Z,0.47
2018-12-07T13:34:38.983Z,1.83
2018-12-07T13:37:06.471Z,0.40
2018-12-07T13:39:34.224Z,0.40
2018-12-07T13:42:02.034Z,0.40
2018-12-07T13:44:29.767Z,0.50
2018-12-07T13:46:57.718Z,0.60
2018-12-07T13:49:25.688Z,0.43
2018-12-07T13:51:54.309Z,0.50
2018-12-07T13:54:22.246Z,0.70
2018-12-07T13:56:49.757Z,0.60
2018-12-07T13:59:17.282Z,0.50
2018-12-07T14:01:44.860Z,0.40
2018-12-07T14:04:12.402Z,0.50
2018-12-07T14:06:39.997Z,0.50
2018-12-07T14:09:07.694Z,0.40
2018-12-07T14:11:35.273Z,0.50
2018-12-07T14:14:02.891Z,0.60
2018-12-07T14:16:30.715Z,0.40
2018-12-07T14:18:58.359Z,0.40
2018-12-07T14:21:26.044Z,0.40
2018-12-07T14:23:53.719Z,0.53
2018-12-07T14:26:21.634Z,0.60
2018-12-07T14:28:49.297Z,0.50
2018-12-07T14:31:16.905Z,0.40
2018-12-07T14:33:44.823Z,0.47
2018-12-07T14:36:12.498Z,0.50
2018-12-07T14:38:40.180Z,0.70
2018-12-07T14:41:07.813Z,0.60
2018-12-07T14:43:35.598Z,0.90
2018-12-07T14:46:03.265Z,0.70
2018-12-07T14:48:31.781Z,0.80
2018-12-07T14:51:06.062Z,0.50
2018-12-07T14:53:33.828Z,0.50
2018-12-07T14:56:01.490Z,0.80
2018-12-07T14:58:29.051Z,0.53
2018-12-07T15:00:56.648Z,0.60
2018-12-07T15:03:24.166Z,0.70
2018-12-07T15:05:51.972Z,0.60
2018-12-07T15:08:19.441Z,0.63
2018-12-07T15:10:47.432Z,0.60
2018-12-07T15:13:15.153Z,0.70
2018-12-07T15:15:42.729Z,0.50
2018-12-07T15:18:10.338Z,0.60
2018-12-07T15:20:38.097Z,0.60
2018-12-07T15:23:05.643Z,0.67
2018-12-07T15:25:33.378Z,0.60
2018-12-07T15:28:01.134Z,0.50
2018-12-07T15:30:28.924Z,0.67
2018-12-07T15:32:56.582Z,0.50
2018-12-07T15:35:24.223Z,0.77
2018-12-07T15:37:51.887Z,0.70
2018-12-07T15:40:19.576Z,0.50
2018-12-07T15:42:47.585Z,0.60
2018-12-07T15:45:15.281Z,0.80
2018-12-07T15:47:43.005Z,0.60
2018-12-07T15:50:10.545Z,0.73
2018-12-07T15:52:38.299Z,0.80
2018-12-07T15:55:06.943Z,0.50
2018-12-07T15:57:34.550Z,0.70
2018-12-07T16:00:02.316Z,0.90
2018-12-07T16:02:29.939Z,0.90
2018-12-07T16:04:57.588Z,0.50
2018-12-07T16:07:25.418Z,0.70
2018-12-07T16:09:53.089Z,0.67
2018-12-07T16:12:20.654Z,0.70
2018-12-07T16:14:48.144Z,0.70
2018-12-07T16:17:15.820Z,0.80
2018-12-07T16:19:43.536Z,0.70
2018-12-07T16:22:11.357Z,0.90
2018-12-07T16:24:39.154Z,0.67
2018-12-07T16:27:06.851Z,0.80
2018-12-07T16:29:34.424Z,0.60
2018-12-07T16:32:02.031Z,1.03
2018-12-07T16:34:29.791Z,0.90
2018-12-07T16:36:57.433Z,0.90
2018-12-07T16:39:25.314Z,1.03
2018-12-07T16:41:52.879Z,0.80
2018-12-07T16:44:20.338Z,0.80
2018-12-07T16:46:47.988Z,0.60
2018-12-07T16:49:16.511Z,0.77
2018-12-07T16:51:44.197Z,0.80
2018-12-07T16:54:11.823Z,0.70
2018-12-07T16:56:39.955Z,0.93
2018-12-07T16:59:07.571Z,0.63
2018-12-07T17:01:35.166Z,0.80
2018-12-07T17:04:03.262Z,0.80
2018-12-07T17:06:31.177Z,0.80
2018-12-07T17:08:58.781Z,0.90
2018-12-07T17:11:26.389Z,1.00
2018-12-07T17:13:54.138Z,0.87
2018-12-07T17:16:21.735Z,1.00
2018-12-07T17:18:49.324Z,1.03
2018-12-07T17:21:16.981Z,0.80
2018-12-07T17:23:44.605Z,0.60
2018-12-07T17:26:12.671Z,0.70
2018-12-07T17:28:40.255Z,0.77
2018-12-07T17:31:07.847Z,0.60
2018-12-07T17:33:35.680Z,0.70
2018-12-07T17:36:03.377Z,0.70
2018-12-07T17:38:31.050Z,0.70
2018-12-07T17:40:58.879Z,0.70
2018-12-07T17:43:26.580Z,0.60
2018-12-07T17:45:54.164Z,0.63
2018-12-07T17:48:21.825Z,0.60
2018-12-07T17:50:49.388Z,0.60
2018-12-07T17:53:17.187Z,0.63
2018-12-07T17:55:45.194Z,0.63
2018-12-07T17:58:12.890Z,0.70
2018-12-07T18:00:40.466Z,0.60
2018-12-07T18:03:08.278Z,0.87
2018-12-07T18:05:35.731Z,0.70
2018-12-07T18:08:03.308Z,0.80
2018-12-07T18:10:31.133Z,0.70
2018-12-07T18:12:58.673Z,0.80
2018-12-07T18:15:26.426Z,0.70
2018-12-07T18:17:54.367Z,0.77
2018-12-07T18:20:22.378Z,0.80
2018-12-07T18:22:49.976Z,0.90
2018-12-07T18:25:17.542Z,0.70
2018-12-07T18:27:44.971Z,0.80
2018-12-07T18:30:12.626Z,1.00
2018-12-07T18:32:40.454Z,0.90
2018-12-07T18:35:08.221Z,1.20
2018-12-07T18:37:35.902Z,1.30
2018-12-07T18:40:04.770Z,1.10
2018-12-07T18:42:32.548Z,1.40
2018-12-07T18:45:00.284Z,1.20
2018-12-07T18:47:28.129Z,1.40
2018-12-07T18:49:57.741Z,1.57
2018-12-07T18:52:25.493Z,1.57
2018-12-07T18:54:53.391Z,1.10
2018-12-07T18:57:20.948Z,1.30
2018-12-07T18:59:48.603Z,1.57
2018-12-07T19:02:16.613Z,1.53
2018-12-07T19:04:44.426Z,1.33
2018-12-07T19:07:12.492Z,1.17
2018-12-07T19:09:40.390Z,1.50
2018-12-07T19:12:07.966Z,1.10
2018-12-07T19:14:35.483Z,1.20
2018-12-07T19:17:04.553Z,1.00
2018-12-07T19:19:32.128Z,1.30
2018-12-07T19:22:00.149Z,1.30
2018-12-07T19:24:27.956Z,1.07
2018-12-07T19:26:55.707Z,1.00
2018-12-07T19:29:23.557Z,1.03
2018-12-07T19:31:51.010Z,1.13
2018-12-07T19:34:18.704Z,0.87
2018-12-07T19:36:46.353Z,1.30
2018-12-07T19:39:14.128Z,1.00
2018-12-07T19:41:42.205Z,1.17
2018-12-07T19:44:13.183Z,1.47
2018-12-07T19:46:41.291Z,1.13
2018-12-07T19:49:09.050Z,1.43
2018-12-07T19:51:36.694Z,1.43
2018-12-07T19:54:04.481Z,1.80
2018-12-07T19:56:31.938Z,1.30
2018-12-07T19:58:59.546Z,1.20
2018-12-07T20:01:27.388Z,1.67
2018-12-07T20:03:55.061Z,1.17
2018-12-07T20:06:22.758Z,1.27
2018-12-07T20:08:50.745Z,1.30
2018-12-07T20:11:19.831Z,1.20
2018-12-07T20:13:47.554Z,1.50
2018-12-07T20:16:15.278Z,1.67
2018-12-07T20:18:43.016Z,1.93
2018-12-07T20:21:10.699Z,1.77
2018-12-07T20:23:38.502Z,1.83
2018-12-07T20:26:06.053Z,1.53
2018-12-07T20:28:33.826Z,1.70
2018-12-07T20:31:01.432Z,1.30
2018-12-07T20:33:28.944Z,1.80
2018-12-07T20:35:56.446Z,1.83
2018-12-07T20:38:23.962Z,1.80
2018-12-07T20:40:51.670Z,1.80
2018-12-07T20:43:19.752Z,1.77
2018-12-07T20:45:47.284Z,2.17
2018-12-07T20:48:15.269Z,1.77
2018-12-07T20:50:43.163Z,1.97
2018-12-07T20:53:10.702Z,2.20
2018-12-07T20:55:38.242Z,1.90
2018-12-07T20:58:05.726Z,1.90
2018-12-07T21:00:33.181Z,2.20
2018-12-07T21:03:00.980Z,2.43
2018-12-07T21:05:55.706Z,2.37
2018-12-07T21:08:31.913Z,2.30
2018-12-07T21:11:01.832Z,2.73
2018-12-07T21:13:45.270Z,2.10
2018-12-07T21:16:29.362Z,1.97
2018-12-07T21:18:57.191Z,2.23
2018-12-07T21:21:45.959Z,2.10
2018-12-07T21:24:13.715Z,2.40
2018-12-07T21:26:41.443Z,2.63
2018-12-07T21:29:09.041Z,2.50
2018-12-07T21:31:36.524Z,2.43
2018-12-07T21:34:20.032Z,2.50
2018-12-07T21:36:47.610Z,2.60
2018-12-07T21:39:19.425Z,3.00
2018-12-07T21:41:47.112Z,2.20
2018-12-07T21:44:14.877Z,2.80
2018-12-07T21:46:42.649Z,2.60
2018-12-07T21:49:10.618Z,2.70
2018-12-07T21:51:58.993Z,2.77
2018-12-07T21:54:26.792Z,3.10
2018-12-07T21:56:54.576Z,2.93
2018-12-07T21:59:22.243Z,3.20
2018-12-07T22:01:51.875Z,3.20
2018-12-07T22:04:19.338Z,2.90
2018-12-07T22:06:47.269Z,3.20
2018-12-07T22:09:14.867Z,2.70
2018-12-07T22:11:42.495Z,3.20
2018-12-07T22:14:10.174Z,3.37
2018-12-07T22:16:38.391Z,3.40
2018-12-07T22:19:06.002Z,3.47
2018-12-07T22:21:33.706Z,3.07
2018-12-07T22:24:01.754Z,3.03
2018-12-07T22:26:29.358Z,3.67
2018-12-07T22:28:56.789Z,3.50
2018-12-07T22:31:24.313Z,3.67
2018-12-07T22:33:52.358Z,3.33
2018-12-07T22:36:19.937Z,3.27
2018-12-07T22:38:47.402Z,3.27
2018-12-07T22:41:14.850Z,2.83
2018-12-07T22:43:42.522Z,2.80
2018-12-07T22:46:10.341Z,3.47
2018-12-07T22:48:37.992Z,3.03
2018-12-07T22:51:05.572Z,3.33
2018-12-07T22:53:33.031Z,3.10
2018-12-07T22:56:00.465Z,3.17
2018-12-07T22:58:27.937Z,3.13
2018-12-07T23:00:55.432Z,2.90
2018-12-07T23:03:22.973Z,4.47
2018-12-07T23:05:50.466Z,3.13
2018-12-07T23:08:17.994Z,2.63
2018-12-07T23:10:45.761Z,2.43
2018-12-07T23:13:13.432Z,2.20
2018-12-07T23:15:40.910Z,2.87
2018-12-07T23:18:08.346Z,5.77
2018-12-07T23:20:36.002Z,2.90
2018-12-07T23:23:03.526Z,2.50
2018-12-07T23:25:30.961Z,2.03
2018-12-07T23:27:58.546Z,2.60
2018-12-07T23:30:26.224Z,2.60
2018-12-07T23:32:53.698Z,3.20
2018-12-07T23:35:21.345Z,2.60
2018-12-07T23:37:48.837Z,2.53
2018-12-07T23:40:16.370Z,2.90
2018-12-07T23:42:43.858Z,3.30
2018-12-07T23:45:11.378Z,2.67
2018-12-07T23:47:38.867Z,2.80
2018-12-07T23:50:07.405Z,3.15
2018-12-07T23:52:34.822Z,2.43
2018-12-07T23:55:02.422Z,2.33
2018-12-07T23:57:29.988Z,2.70
2018-12-07T23:59:57.970Z,2.60
